sensor_id;sensor_type;location;lat;lon;timestamp;temperature;humidity
21387;DHT22;10854;45.922;6.716;2022-07-23T00:01:25;24.10;57.30
21387;DHT22;10854;45.922;6.716;2022-07-23T00:03:56;24.00;57.60
21387;DHT22;10854;45.922;6.716;2022-07-23T00:06:25;24.00;57.80
21387;DHT22;10854;45.922;6.716;2022-07-23T00:08:54;23.90;57.90
21387;DHT22;10854;45.922;6.716;2022-07-23T00:11:22;23.80;58.10
21387;DHT22;10854;45.922;6.716;2022-07-23T00:13:51;23.80;58.30
21387;DHT22;10854;45.922;6.716;2022-07-23T00:16:21;23.70;58.60
21387;DHT22;10854;45.922;6.716;2022-07-23T00:18:49;23.60;58.80
21387;DHT22;10854;45.922;6.716;2022-07-23T00:21:18;23.60;58.90
21387;DHT22;10854;45.922;6.716;2022-07-23T00:23:48;23.50;59.10
21387;DHT22;10854;45.922;6.716;2022-07-23T00:26:16;23.40;59.20
21387;DHT22;10854;45.922;6.716;2022-07-23T00:28:45;23.40;59.20
21387;DHT22;10854;45.922;6.716;2022-07-23T00:31:14;23.30;59.60
21387;DHT22;10854;45.922;6.716;2022-07-23T00:33:44;23.20;60.00
21387;DHT22;10854;45.922;6.716;2022-07-23T00:36:13;23.20;60.30
21387;DHT22;10854;45.922;6.716;2022-07-23T00:38:41;23.10;60.80
21387;DHT22;10854;45.922;6.716;2022-07-23T00:41:10;23.10;61.30
21387;DHT22;10854;45.922;6.716;2022-07-23T00:43:38;23.00;61.00
21387;DHT22;10854;45.922;6.716;2022-07-23T00:46:07;22.90;61.00
21387;DHT22;10854;45.922;6.716;2022-07-23T00:48:35;22.90;61.30
21387;DHT22;10854;45.922;6.716;2022-07-23T00:51:04;22.80;61.50
21387;DHT22;10854;45.922;6.716;2022-07-23T00:53:33;22.80;61.40
21387;DHT22;10854;45.922;6.716;2022-07-23T00:56:02;22.70;61.60
21387;DHT22;10854;45.922;6.716;2022-07-23T00:58:30;22.70;61.80
21387;DHT22;10854;45.922;6.716;2022-07-23T01:00:59;22.70;62.10
21387;DHT22;10854;45.922;6.716;2022-07-23T01:03:28;22.70;62.40
21387;DHT22;10854;45.922;6.716;2022-07-23T01:05:57;22.70;62.50
21387;DHT22;10854;45.922;6.716;2022-07-23T01:08:25;22.70;62.50
21387;DHT22;10854;45.922;6.716;2022-07-23T01:10:54;22.70;62.40
21387;DHT22;10854;45.922;6.716;2022-07-23T01:13:22;22.70;62.20
21387;DHT22;10854;45.922;6.716;2022-07-23T01:15:51;22.70;62.00
21387;DHT22;10854;45.922;6.716;2022-07-23T01:18:20;22.70;61.80
21387;DHT22;10854;45.922;6.716;2022-07-23T01:20:48;22.80;62.00
21387;DHT22;10854;45.922;6.716;2022-07-23T01:23:17;22.80;62.20
21387;DHT22;10854;45.922;6.716;2022-07-23T01:25:52;22.80;62.10
21387;DHT22;10854;45.922;6.716;2022-07-23T01:28:22;22.80;62.00
21387;DHT22;10854;45.922;6.716;2022-07-23T01:30:50;22.90;61.80
21387;DHT22;10854;45.922;6.716;2022-07-23T01:33:19;22.90;61.50
21387;DHT22;10854;45.922;6.716;2022-07-23T01:35:47;23.00;61.50
21387;DHT22;10854;45.922;6.716;2022-07-23T01:38:16;23.00;61.70
21387;DHT22;10854;45.922;6.716;2022-07-23T01:40:44;23.00;61.50
21387;DHT22;10854;45.922;6.716;2022-07-23T01:43:14;23.00;61.70
21387;DHT22;10854;45.922;6.716;2022-07-23T01:45:44;23.00;62.30
21387;DHT22;10854;45.922;6.716;2022-07-23T01:48:13;23.00;62.50
21387;DHT22;10854;45.922;6.716;2022-07-23T01:50:41;22.90;62.50
21387;DHT22;10854;45.922;6.716;2022-07-23T01:53:10;22.90;62.70
21387;DHT22;10854;45.922;6.716;2022-07-23T01:55:38;22.80;62.80
21387;DHT22;10854;45.922;6.716;2022-07-23T01:58:07;22.80;63.30
21387;DHT22;10854;45.922;6.716;2022-07-23T02:00:35;22.80;64.50
21387;DHT22;10854;45.922;6.716;2022-07-23T02:03:04;22.70;65.60
21387;DHT22;10854;45.922;6.716;2022-07-23T02:05:33;22.60;67.20
21387;DHT22;10854;45.922;6.716;2022-07-23T02:08:01;22.60;67.90
21387;DHT22;10854;45.922;6.716;2022-07-23T02:10:30;22.50;69.60
21387;DHT22;10854;45.922;6.716;2022-07-23T02:12:59;22.20;73.20
21387;DHT22;10854;45.922;6.716;2022-07-23T02:15:27;21.90;75.50
21387;DHT22;10854;45.922;6.716;2022-07-23T02:17:58;21.30;76.70
21387;DHT22;10854;45.922;6.716;2022-07-23T02:20:28;20.80;78.50
21387;DHT22;10854;45.922;6.716;2022-07-23T02:23:42;20.40;80.00
21387;DHT22;10854;45.922;6.716;2022-07-23T02:27:13;19.90;82.10
21387;DHT22;10854;45.922;6.716;2022-07-23T02:30:22;19.60;85.90
21387;DHT22;10854;45.922;6.716;2022-07-23T02:32:52;19.40;87.00
21387;DHT22;10854;45.922;6.716;2022-07-23T02:35:46;19.30;87.80
21387;DHT22;10854;45.922;6.716;2022-07-23T02:38:33;19.40;91.80
21387;DHT22;10854;45.922;6.716;2022-07-23T02:41:01;19.30;92.30
21387;DHT22;10854;45.922;6.716;2022-07-23T02:43:32;19.30;94.00
21387;DHT22;10854;45.922;6.716;2022-07-23T02:46:21;19.20;95.60
21387;DHT22;10854;45.922;6.716;2022-07-23T02:48:55;19.00;97.50
21387;DHT22;10854;45.922;6.716;2022-07-23T02:51:37;18.80;99.50
21387;DHT22;10854;45.922;6.716;2022-07-23T02:54:50;18.60;99.90
21387;DHT22;10854;45.922;6.716;2022-07-23T02:59:03;18.30;99.90
21387;DHT22;10854;45.922;6.716;2022-07-23T03:23:46;18.70;99.90
21387;DHT22;10854;45.922;6.716;2022-07-23T03:27:10;18.80;99.90
21387;DHT22;10854;45.922;6.716;2022-07-23T03:29:42;18.90;99.90
21387;DHT22;10854;45.922;6.716;2022-07-23T03:32:50;19.00;99.90
21387;DHT22;10854;45.922;6.716;2022-07-23T03:35:21;19.00;99.90
21387;DHT22;10854;45.922;6.716;2022-07-23T03:38:25;19.00;99.90
21387;DHT22;10854;45.922;6.716;2022-07-23T03:40:55;18.90;99.90
21387;DHT22;10854;45.922;6.716;2022-07-23T03:43:25;19.00;99.90
21387;DHT22;10854;45.922;6.716;2022-07-23T03:45:56;18.90;99.90
21387;DHT22;10854;45.922;6.716;2022-07-23T03:48:30;18.90;99.90
21387;DHT22;10854;45.922;6.716;2022-07-23T03:51:01;18.90;99.90
21387;DHT22;10854;45.922;6.716;2022-07-23T03:53:31;18.90;99.90
21387;DHT22;10854;45.922;6.716;2022-07-23T03:56:05;19.00;99.90
21387;DHT22;10854;45.922;6.716;2022-07-23T03:58:41;18.90;99.90
21387;DHT22;10854;45.922;6.716;2022-07-23T04:01:11;19.00;99.90
21387;DHT22;10854;45.922;6.716;2022-07-23T04:03:47;19.00;99.90
21387;DHT22;10854;45.922;6.716;2022-07-23T04:06:16;19.10;99.90
21387;DHT22;10854;45.922;6.716;2022-07-23T04:08:46;19.10;99.90
21387;DHT22;10854;45.922;6.716;2022-07-23T04:11:15;19.20;99.90
21387;DHT22;10854;45.922;6.716;2022-07-23T04:13:44;19.20;99.90
21387;DHT22;10854;45.922;6.716;2022-07-23T04:16:13;19.30;99.90
21387;DHT22;10854;45.922;6.716;2022-07-23T04:18:54;19.40;99.90
21387;DHT22;10854;45.922;6.716;2022-07-23T04:21:23;19.40;99.90
21387;DHT22;10854;45.922;6.716;2022-07-23T04:23:52;19.50;99.90
21387;DHT22;10854;45.922;6.716;2022-07-23T04:26:21;19.60;99.90
21387;DHT22;10854;45.922;6.716;2022-07-23T04:28:50;19.60;99.90
21387;DHT22;10854;45.922;6.716;2022-07-23T04:31:18;19.60;99.90
21387;DHT22;10854;45.922;6.716;2022-07-23T04:33:47;19.60;99.90
21387;DHT22;10854;45.922;6.716;2022-07-23T04:36:16;19.70;99.90
21387;DHT22;10854;45.922;6.716;2022-07-23T04:38:45;19.70;99.90
21387;DHT22;10854;45.922;6.716;2022-07-23T04:41:16;19.80;99.90
21387;DHT22;10854;45.922;6.716;2022-07-23T04:43:45;19.80;99.90
21387;DHT22;10854;45.922;6.716;2022-07-23T04:46:14;19.90;99.90
21387;DHT22;10854;45.922;6.716;2022-07-23T04:48:43;20.00;99.90
21387;DHT22;10854;45.922;6.716;2022-07-23T04:51:12;20.10;99.90
21387;DHT22;10854;45.922;6.716;2022-07-23T04:53:41;20.10;99.90
21387;DHT22;10854;45.922;6.716;2022-07-23T04:56:10;20.20;99.90
21387;DHT22;10854;45.922;6.716;2022-07-23T04:58:38;20.20;99.90
21387;DHT22;10854;45.922;6.716;2022-07-23T05:01:07;20.10;99.90
21387;DHT22;10854;45.922;6.716;2022-07-23T05:03:36;20.20;99.90
21387;DHT22;10854;45.922;6.716;2022-07-23T05:06:05;20.20;99.90
21387;DHT22;10854;45.922;6.716;2022-07-23T05:08:34;20.20;99.90
21387;DHT22;10854;45.922;6.716;2022-07-23T05:11:02;20.20;99.90
21387;DHT22;10854;45.922;6.716;2022-07-23T05:13:31;20.20;99.90
21387;DHT22;10854;45.922;6.716;2022-07-23T05:15:59;20.30;99.90
21387;DHT22;10854;45.922;6.716;2022-07-23T05:18:28;20.30;99.90
21387;DHT22;10854;45.922;6.716;2022-07-23T05:20:57;20.30;99.90
21387;DHT22;10854;45.922;6.716;2022-07-23T05:23:25;20.30;99.90
21387;DHT22;10854;45.922;6.716;2022-07-23T05:25:54;20.40;99.90
21387;DHT22;10854;45.922;6.716;2022-07-23T05:28:23;20.40;99.90
21387;DHT22;10854;45.922;6.716;2022-07-23T05:30:52;20.40;99.90
21387;DHT22;10854;45.922;6.716;2022-07-23T05:33:20;20.50;99.90
21387;DHT22;10854;45.922;6.716;2022-07-23T05:35:49;20.60;99.90
21387;DHT22;10854;45.922;6.716;2022-07-23T05:38:20;20.70;99.90
21387;DHT22;10854;45.922;6.716;2022-07-23T05:40:48;20.70;99.90
21387;DHT22;10854;45.922;6.716;2022-07-23T05:43:17;20.80;99.90
21387;DHT22;10854;45.922;6.716;2022-07-23T05:45:45;20.90;99.90
21387;DHT22;10854;45.922;6.716;2022-07-23T05:48:14;20.90;99.90
21387;DHT22;10854;45.922;6.716;2022-07-23T05:50:44;21.00;99.90
21387;DHT22;10854;45.922;6.716;2022-07-23T05:53:12;21.00;99.90
21387;DHT22;10854;45.922;6.716;2022-07-23T05:55:43;21.10;99.90
21387;DHT22;10854;45.922;6.716;2022-07-23T05:58:12;21.20;99.90
21387;DHT22;10854;45.922;6.716;2022-07-23T06:00:40;21.20;99.90
21387;DHT22;10854;45.922;6.716;2022-07-23T06:03:09;21.30;99.90
21387;DHT22;10854;45.922;6.716;2022-07-23T06:05:38;21.30;99.90
21387;DHT22;10854;45.922;6.716;2022-07-23T06:08:06;21.50;99.90
21387;DHT22;10854;45.922;6.716;2022-07-23T06:10:35;21.50;99.90
21387;DHT22;10854;45.922;6.716;2022-07-23T06:13:04;21.60;99.90
21387;DHT22;10854;45.922;6.716;2022-07-23T06:15:32;21.60;99.90
21387;DHT22;10854;45.922;6.716;2022-07-23T06:18:01;21.70;99.90
21387;DHT22;10854;45.922;6.716;2022-07-23T06:20:30;21.70;99.90
21387;DHT22;10854;45.922;6.716;2022-07-23T06:22:58;21.70;99.40
21387;DHT22;10854;45.922;6.716;2022-07-23T06:25:28;21.80;98.90
21387;DHT22;10854;45.922;6.716;2022-07-23T06:27:57;21.80;99.00
21387;DHT22;10854;45.922;6.716;2022-07-23T06:30:26;21.80;98.80
21387;DHT22;10854;45.922;6.716;2022-07-23T06:32:55;21.70;99.10
21387;DHT22;10854;45.922;6.716;2022-07-23T06:35:24;21.70;99.40
21387;DHT22;10854;45.922;6.716;2022-07-23T06:37:53;21.80;99.90
21387;DHT22;10854;45.922;6.716;2022-07-23T06:40:21;22.20;99.90
21387;DHT22;10854;45.922;6.716;2022-07-23T06:42:50;22.60;99.90
21387;DHT22;10854;45.922;6.716;2022-07-23T06:45:19;23.40;99.10
21387;DHT22;10854;45.922;6.716;2022-07-23T06:47:53;24.30;96.70
21387;DHT22;10854;45.922;6.716;2022-07-23T06:50:22;25.20;92.90
21387;DHT22;10854;45.922;6.716;2022-07-23T06:52:51;26.10;90.30
21387;DHT22;10854;45.922;6.716;2022-07-23T06:55:20;26.90;85.50
21387;DHT22;10854;45.922;6.716;2022-07-23T06:57:51;27.60;81.40
21387;DHT22;10854;45.922;6.716;2022-07-23T07:00:20;28.10;77.20
21387;DHT22;10854;45.922;6.716;2022-07-23T07:02:49;28.50;72.80
21387;DHT22;10854;45.922;6.716;2022-07-23T07:05:19;28.80;69.60
21387;DHT22;10854;45.922;6.716;2022-07-23T07:07:48;29.30;68.90
21387;DHT22;10854;45.922;6.716;2022-07-23T07:10:17;30.00;67.30
21387;DHT22;10854;45.922;6.716;2022-07-23T07:12:46;30.60;63.90
21387;DHT22;10854;45.922;6.716;2022-07-23T07:15:14;30.60;61.20
21387;DHT22;10854;45.922;6.716;2022-07-23T07:17:43;30.20;60.70
21387;DHT22;10854;45.922;6.716;2022-07-23T07:20:11;29.90;61.30
21387;DHT22;10854;45.922;6.716;2022-07-23T07:22:40;29.60;62.00
21387;DHT22;10854;45.922;6.716;2022-07-23T07:25:09;29.50;63.70
21387;DHT22;10854;45.922;6.716;2022-07-23T07:27:37;29.70;61.10
21387;DHT22;10854;45.922;6.716;2022-07-23T07:30:06;29.70;59.50
21387;DHT22;10854;45.922;6.716;2022-07-23T07:32:35;29.90;59.10
21387;DHT22;10854;45.922;6.716;2022-07-23T07:35:25;30.40;58.30
21387;DHT22;10854;45.922;6.716;2022-07-23T07:37:53;31.00;57.40
21387;DHT22;10854;45.922;6.716;2022-07-23T07:40:23;31.70;56.40
21387;DHT22;10854;45.922;6.716;2022-07-23T07:42:54;32.30;55.50
21387;DHT22;10854;45.922;6.716;2022-07-23T07:45:24;32.90;53.80
21387;DHT22;10854;45.922;6.716;2022-07-23T07:47:53;33.10;52.70
21387;DHT22;10854;45.922;6.716;2022-07-23T07:50:22;33.20;52.10
21387;DHT22;10854;45.922;6.716;2022-07-23T07:52:50;33.20;51.30
21387;DHT22;10854;45.922;6.716;2022-07-23T07:55:19;33.20;51.20
21387;DHT22;10854;45.922;6.716;2022-07-23T07:57:47;33.20;50.60
21387;DHT22;10854;45.922;6.716;2022-07-23T08:00:17;33.20;50.70
21387;DHT22;10854;45.922;6.716;2022-07-23T08:02:52;33.20;50.50
21387;DHT22;10854;45.922;6.716;2022-07-23T08:05:23;32.80;50.00
21387;DHT22;10854;45.922;6.716;2022-07-23T08:07:54;32.20;50.90
21387;DHT22;10854;45.922;6.716;2022-07-23T08:10:26;31.60;51.40
21387;DHT22;10854;45.922;6.716;2022-07-23T08:12:56;31.20;52.50
21387;DHT22;10854;45.922;6.716;2022-07-23T08:15:28;30.90;53.30
21387;DHT22;10854;45.922;6.716;2022-07-23T08:17:57;30.80;54.10
21387;DHT22;10854;45.922;6.716;2022-07-23T08:20:26;31.00;54.20
21387;DHT22;10854;45.922;6.716;2022-07-23T08:25:31;31.50;52.90
21387;DHT22;10854;45.922;6.716;2022-07-23T08:28:02;31.40;53.00
21387;DHT22;10854;45.922;6.716;2022-07-23T08:30:32;31.30;53.20
21387;DHT22;10854;45.922;6.716;2022-07-23T08:33:03;31.00;52.70
21387;DHT22;10854;45.922;6.716;2022-07-23T08:35:37;30.70;53.20
21387;DHT22;10854;45.922;6.716;2022-07-23T08:38:08;30.70;53.30
21387;DHT22;10854;45.922;6.716;2022-07-23T08:40:42;30.80;53.00
21387;DHT22;10854;45.922;6.716;2022-07-23T08:43:14;30.70;52.70
21387;DHT22;10854;45.922;6.716;2022-07-23T08:45:47;31.10;52.60
21387;DHT22;10854;45.922;6.716;2022-07-23T08:48:18;31.60;51.60
21387;DHT22;10854;45.922;6.716;2022-07-23T08:50:48;32.30;50.70
21387;DHT22;10854;45.922;6.716;2022-07-23T08:53:18;32.90;49.80
21387;DHT22;10854;45.922;6.716;2022-07-23T08:55:49;33.40;48.80
21387;DHT22;10854;45.922;6.716;2022-07-23T08:58:18;33.40;48.10
21387;DHT22;10854;45.922;6.716;2022-07-23T09:00:49;33.60;48.40
21387;DHT22;10854;45.922;6.716;2022-07-23T09:03:22;34.20;48.00
21387;DHT22;10854;45.922;6.716;2022-07-23T09:05:52;34.80;47.20
21387;DHT22;10854;45.922;6.716;2022-07-23T09:08:26;35.20;45.00
21387;DHT22;10854;45.922;6.716;2022-07-23T09:11:03;34.70;44.20
21387;DHT22;10854;45.922;6.716;2022-07-23T09:13:50;34.40;44.70
21387;DHT22;10854;45.922;6.716;2022-07-23T09:16:28;33.80;45.40
21387;DHT22;10854;45.922;6.716;2022-07-23T09:19:02;33.20;46.70
21387;DHT22;10854;45.922;6.716;2022-07-23T09:21:36;32.90;47.40
21387;DHT22;10854;45.922;6.716;2022-07-23T09:24:12;32.40;47.80
21387;DHT22;10854;45.922;6.716;2022-07-23T09:26:47;32.20;48.80
21387;DHT22;10854;45.922;6.716;2022-07-23T09:29:18;32.10;49.20
21387;DHT22;10854;45.922;6.716;2022-07-23T09:32:03;32.20;49.50
21387;DHT22;10854;45.922;6.716;2022-07-23T09:34:36;32.50;49.20
21387;DHT22;10854;45.922;6.716;2022-07-23T09:37:18;33.10;48.80
21387;DHT22;10854;45.922;6.716;2022-07-23T09:39:47;33.80;47.40
21387;DHT22;10854;45.922;6.716;2022-07-23T09:42:24;34.40;46.50
21387;DHT22;10854;45.922;6.716;2022-07-23T09:44:56;34.90;45.40
21387;DHT22;10854;45.922;6.716;2022-07-23T09:47:30;35.40;45.10
21387;DHT22;10854;45.922;6.716;2022-07-23T09:50:02;35.80;44.30
21387;DHT22;10854;45.922;6.716;2022-07-23T09:52:44;36.20;43.90
21387;DHT22;10854;45.922;6.716;2022-07-23T09:55:14;36.70;43.40
21387;DHT22;10854;45.922;6.716;2022-07-23T09:57:44;37.20;42.50
21387;DHT22;10854;45.922;6.716;2022-07-23T10:00:23;37.90;41.30
21387;DHT22;10854;45.922;6.716;2022-07-23T10:02:51;38.10;40.30
21387;DHT22;10854;45.922;6.716;2022-07-23T10:05:21;38.30;39.20
21387;DHT22;10854;45.922;6.716;2022-07-23T10:07:51;38.30;38.80
21387;DHT22;10854;45.922;6.716;2022-07-23T10:10:21;38.50;38.30
21387;DHT22;10854;45.922;6.716;2022-07-23T10:12:51;38.50;37.60
21387;DHT22;10854;45.922;6.716;2022-07-23T10:15:19;38.00;37.70
21387;DHT22;10854;45.922;6.716;2022-07-23T10:17:49;37.80;38.10
21387;DHT22;10854;45.922;6.716;2022-07-23T10:20:18;37.70;38.20
21387;DHT22;10854;45.922;6.716;2022-07-23T10:22:59;37.60;37.90
21387;DHT22;10854;45.922;6.716;2022-07-23T10:31:55;38.70;37.20
21387;DHT22;10854;45.922;6.716;2022-07-23T10:34:46;39.30;36.80
21387;DHT22;10854;45.922;6.716;2022-07-23T10:37:21;39.70;35.50
21387;DHT22;10854;45.922;6.716;2022-07-23T10:40:12;39.90;35.30
21387;DHT22;10854;45.922;6.716;2022-07-23T10:42:41;40.00;35.20
21387;DHT22;10854;45.922;6.716;2022-07-23T10:45:26;40.10;35.40
21387;DHT22;10854;45.922;6.716;2022-07-23T10:48:17;40.30;34.30
21387;DHT22;10854;45.922;6.716;2022-07-23T10:51:12;40.00;33.70
21387;DHT22;10854;45.922;6.716;2022-07-23T10:53:55;39.70;34.30
21387;DHT22;10854;45.922;6.716;2022-07-23T10:59:26;38.90;36.30
21387;DHT22;10854;45.922;6.716;2022-07-23T11:02:21;38.80;36.90
21387;DHT22;10854;45.922;6.716;2022-07-23T11:04:54;38.80;36.20
21387;DHT22;10854;45.922;6.716;2022-07-23T11:07:27;38.70;36.20
21387;DHT22;10854;45.922;6.716;2022-07-23T11:09:56;38.30;36.30
21387;DHT22;10854;45.922;6.716;2022-07-23T11:15:08;37.60;37.30
21387;DHT22;10854;45.922;6.716;2022-07-23T11:20:18;37.20;37.90
21387;DHT22;10854;45.922;6.716;2022-07-23T11:22:54;37.00;38.00
21387;DHT22;10854;45.922;6.716;2022-07-23T11:28:18;36.70;38.40
21387;DHT22;10854;45.922;6.716;2022-07-23T11:30:49;36.60;38.20
21387;DHT22;10854;45.922;6.716;2022-07-23T11:33:19;36.40;38.80
21387;DHT22;10854;45.922;6.716;2022-07-23T11:36:01;36.50;39.00
21387;DHT22;10854;45.922;6.716;2022-07-23T11:38:33;36.60;39.10
21387;DHT22;10854;45.922;6.716;2022-07-23T11:41:03;36.60;38.90
21387;DHT22;10854;45.922;6.716;2022-07-23T11:43:32;36.80;38.70
21387;DHT22;10854;45.922;6.716;2022-07-23T11:46:04;36.90;38.20
21387;DHT22;10854;45.922;6.716;2022-07-23T11:48:33;36.70;38.20
21387;DHT22;10854;45.922;6.716;2022-07-23T11:51:05;36.60;38.40
21387;DHT22;10854;45.922;6.716;2022-07-23T11:53:34;36.30;38.80
21387;DHT22;10854;45.922;6.716;2022-07-23T11:56:07;36.00;39.40
21387;DHT22;10854;45.922;6.716;2022-07-23T11:58:37;36.00;39.80
21387;DHT22;10854;45.922;6.716;2022-07-23T12:01:06;36.00;40.00
21387;DHT22;10854;45.922;6.716;2022-07-23T12:03:35;36.20;39.90
21387;DHT22;10854;45.922;6.716;2022-07-23T12:06:04;36.30;40.00
21387;DHT22;10854;45.922;6.716;2022-07-23T12:08:32;36.70;39.70
21387;DHT22;10854;45.922;6.716;2022-07-23T12:11:01;37.20;38.60
21387;DHT22;10854;45.922;6.716;2022-07-23T12:13:29;37.50;37.60
21387;DHT22;10854;45.922;6.716;2022-07-23T12:15:58;37.60;37.50
21387;DHT22;10854;45.922;6.716;2022-07-23T12:18:27;37.70;37.40
21387;DHT22;10854;45.922;6.716;2022-07-23T12:20:57;37.80;37.00
21387;DHT22;10854;45.922;6.716;2022-07-23T12:23:31;37.80;36.60
21387;DHT22;10854;45.922;6.716;2022-07-23T12:26:02;37.90;36.40
21387;DHT22;10854;45.922;6.716;2022-07-23T12:28:32;38.20;35.90
21387;DHT22;10854;45.922;6.716;2022-07-23T12:31:01;38.40;35.90
21387;DHT22;10854;45.922;6.716;2022-07-23T12:33:35;38.70;35.60
21387;DHT22;10854;45.922;6.716;2022-07-23T12:36:06;38.90;35.50
21387;DHT22;10854;45.922;6.716;2022-07-23T12:38:38;38.80;35.40
21387;DHT22;10854;45.922;6.716;2022-07-23T12:41:08;38.50;35.60
21387;DHT22;10854;45.922;6.716;2022-07-23T12:43:39;38.40;35.90
21387;DHT22;10854;45.922;6.716;2022-07-23T12:51:27;38.80;34.70
21387;DHT22;10854;45.922;6.716;2022-07-23T12:54:07;39.00;34.70
21387;DHT22;10854;45.922;6.716;2022-07-23T12:56:38;39.30;34.40
21387;DHT22;10854;45.922;6.716;2022-07-23T12:59:10;39.00;34.20
21387;DHT22;10854;45.922;6.716;2022-07-23T13:01:44;38.30;34.60
21387;DHT22;10854;45.922;6.716;2022-07-23T13:04:24;37.80;35.40
21387;DHT22;10854;45.922;6.716;2022-07-23T13:06:57;37.50;35.90
21387;DHT22;10854;45.922;6.716;2022-07-23T13:09:28;37.20;36.50
21387;DHT22;10854;45.922;6.716;2022-07-23T13:11:57;37.10;36.90
21387;DHT22;10854;45.922;6.716;2022-07-23T13:14:28;37.00;37.10
21387;DHT22;10854;45.922;6.716;2022-07-23T13:16:56;36.60;37.70
21387;DHT22;10854;45.922;6.716;2022-07-23T13:19:25;36.40;38.80
21387;DHT22;10854;45.922;6.716;2022-07-23T13:21:54;36.60;39.30
21387;DHT22;10854;45.922;6.716;2022-07-23T13:24:23;37.00;39.10
21387;DHT22;10854;45.922;6.716;2022-07-23T13:26:51;37.40;38.50
21387;DHT22;10854;45.922;6.716;2022-07-23T13:29:20;37.70;37.90
21387;DHT22;10854;45.922;6.716;2022-07-23T13:31:48;37.60;37.50
21387;DHT22;10854;45.922;6.716;2022-07-23T13:34:17;37.60;37.40
21387;DHT22;10854;45.922;6.716;2022-07-23T13:36:46;37.70;37.40
21387;DHT22;10854;45.922;6.716;2022-07-23T13:39:15;37.90;37.00
21387;DHT22;10854;45.922;6.716;2022-07-23T13:41:44;38.20;36.50
21387;DHT22;10854;45.922;6.716;2022-07-23T13:44:14;38.60;35.70
21387;DHT22;10854;45.922;6.716;2022-07-23T13:46:42;38.90;35.70
21387;DHT22;10854;45.922;6.716;2022-07-23T13:49:11;38.80;36.00
21387;DHT22;10854;45.922;6.716;2022-07-23T13:51:39;38.50;36.30
21387;DHT22;10854;45.922;6.716;2022-07-23T13:54:08;38.10;36.80
21387;DHT22;10854;45.922;6.716;2022-07-23T13:56:36;37.60;37.50
21387;DHT22;10854;45.922;6.716;2022-07-23T13:59:05;37.30;38.20
21387;DHT22;10854;45.922;6.716;2022-07-23T14:01:34;36.90;38.90
21387;DHT22;10854;45.922;6.716;2022-07-23T14:04:05;36.70;39.60
21387;DHT22;10854;45.922;6.716;2022-07-23T14:06:34;36.40;39.90
21387;DHT22;10854;45.922;6.716;2022-07-23T14:09:02;36.20;40.30
21387;DHT22;10854;45.922;6.716;2022-07-23T14:11:31;36.00;40.40
21387;DHT22;10854;45.922;6.716;2022-07-23T14:14:01;35.70;40.70
21387;DHT22;10854;45.922;6.716;2022-07-23T14:16:30;35.40;41.40
21387;DHT22;10854;45.922;6.716;2022-07-23T14:18:59;35.20;42.40
21387;DHT22;10854;45.922;6.716;2022-07-23T14:21:28;35.10;42.50
21387;DHT22;10854;45.922;6.716;2022-07-23T14:23:56;35.00;42.90
21387;DHT22;10854;45.922;6.716;2022-07-23T14:26:24;35.00;43.00
21387;DHT22;10854;45.922;6.716;2022-07-23T14:28:53;35.00;43.10
21387;DHT22;10854;45.922;6.716;2022-07-23T14:31:22;35.00;43.10
21387;DHT22;10854;45.922;6.716;2022-07-23T14:33:51;35.10;43.20
21387;DHT22;10854;45.922;6.716;2022-07-23T14:36:19;35.50;42.70
21387;DHT22;10854;45.922;6.716;2022-07-23T14:38:48;36.00;42.30
21387;DHT22;10854;45.922;6.716;2022-07-23T14:41:17;36.30;41.60
21387;DHT22;10854;45.922;6.716;2022-07-23T14:43:46;36.50;41.10
21387;DHT22;10854;45.922;6.716;2022-07-23T14:46:15;36.60;40.90
21387;DHT22;10854;45.922;6.716;2022-07-23T14:48:44;36.60;40.70
21387;DHT22;10854;45.922;6.716;2022-07-23T14:51:12;36.50;41.00
21387;DHT22;10854;45.922;6.716;2022-07-23T14:53:41;36.30;41.10
21387;DHT22;10854;45.922;6.716;2022-07-23T14:56:09;36.10;41.60
21387;DHT22;10854;45.922;6.716;2022-07-23T14:58:38;36.10;41.80
21387;DHT22;10854;45.922;6.716;2022-07-23T15:01:07;36.00;41.70
21387;DHT22;10854;45.922;6.716;2022-07-23T15:03:35;35.90;41.70
21387;DHT22;10854;45.922;6.716;2022-07-23T15:06:04;35.90;41.70
21387;DHT22;10854;45.922;6.716;2022-07-23T15:08:33;35.80;41.70
21387;DHT22;10854;45.922;6.716;2022-07-23T15:11:01;35.70;41.80
21387;DHT22;10854;45.922;6.716;2022-07-23T15:13:30;35.70;42.90
21387;DHT22;10854;45.922;6.716;2022-07-23T15:15:58;35.60;42.70
21387;DHT22;10854;45.922;6.716;2022-07-23T15:18:27;35.70;42.60
21387;DHT22;10854;45.922;6.716;2022-07-23T15:20:56;35.70;42.40
21387;DHT22;10854;45.922;6.716;2022-07-23T15:23:25;36.00;42.50
21387;DHT22;10854;45.922;6.716;2022-07-23T15:25:56;36.30;41.60
21387;DHT22;10854;45.922;6.716;2022-07-23T15:28:24;36.40;41.00
21387;DHT22;10854;45.922;6.716;2022-07-23T15:30:53;36.40;41.00
21387;DHT22;10854;45.922;6.716;2022-07-23T15:33:22;36.20;41.00
21387;DHT22;10854;45.922;6.716;2022-07-23T15:35:51;36.20;41.30
21387;DHT22;10854;45.922;6.716;2022-07-23T15:38:21;36.40;41.10
21387;DHT22;10854;45.922;6.716;2022-07-23T15:40:50;36.50;41.60
21387;DHT22;10854;45.922;6.716;2022-07-23T15:43:18;36.40;41.10
21387;DHT22;10854;45.922;6.716;2022-07-23T15:45:48;36.50;41.20
21387;DHT22;10854;45.922;6.716;2022-07-23T15:48:19;36.70;41.00
21387;DHT22;10854;45.922;6.716;2022-07-23T15:50:49;37.00;40.80
21387;DHT22;10854;45.922;6.716;2022-07-23T15:53:18;37.20;40.30
21387;DHT22;10854;45.922;6.716;2022-07-23T15:55:47;37.20;40.00
21387;DHT22;10854;45.922;6.716;2022-07-23T15:58:15;37.00;40.30
21387;DHT22;10854;45.922;6.716;2022-07-23T16:00:44;37.00;40.70
21387;DHT22;10854;45.922;6.716;2022-07-23T16:03:14;36.80;40.70
21387;DHT22;10854;45.922;6.716;2022-07-23T16:05:42;36.80;40.70
21387;DHT22;10854;45.922;6.716;2022-07-23T16:08:11;36.70;40.90
21387;DHT22;10854;45.922;6.716;2022-07-23T16:10:40;36.60;41.10
21387;DHT22;10854;45.922;6.716;2022-07-23T16:13:08;36.60;41.30
21387;DHT22;10854;45.922;6.716;2022-07-23T16:15:37;36.30;41.60
21387;DHT22;10854;45.922;6.716;2022-07-23T16:18:05;36.10;41.80
21387;DHT22;10854;45.922;6.716;2022-07-23T16:20:35;35.90;42.60
21387;DHT22;10854;45.922;6.716;2022-07-23T16:23:04;35.70;42.80
21387;DHT22;10854;45.922;6.716;2022-07-23T16:25:35;35.50;42.70
21387;DHT22;10854;45.922;6.716;2022-07-23T16:28:03;35.40;43.20
21387;DHT22;10854;45.922;6.716;2022-07-23T16:30:33;35.40;43.90
21387;DHT22;10854;45.922;6.716;2022-07-23T16:33:03;35.40;43.10
21387;DHT22;10854;45.922;6.716;2022-07-23T16:35:33;35.20;43.20
21387;DHT22;10854;45.922;6.716;2022-07-23T16:38:03;34.80;43.60
21387;DHT22;10854;45.922;6.716;2022-07-23T16:40:32;34.50;43.90
21387;DHT22;10854;45.922;6.716;2022-07-23T16:43:02;34.40;44.00
21387;DHT22;10854;45.922;6.716;2022-07-23T16:45:30;34.50;44.20